createdAt,value
2018-10-21T00:01:46.002Z,100.00
2018-10-21T00:04:14.894Z,100.00
2018-10-21T00:06:43.708Z,100.00
2018-10-21T00:09:13.028Z,100.00
2018-10-21T00:11:42.260Z,100.00
2018-10-21T00:14:11.053Z,100.00
2018-10-21T00:16:39.868Z,100.00
2018-10-21T00:19:08.970Z,100.00
2018-10-21T00:21:37.925Z,100.00
2018-10-21T00:24:06.771Z,100.00
2018-10-21T00:26:35.599Z,100.00
2018-10-21T00:29:04.880Z,100.00
2018-10-21T00:31:33.655Z,100.00
2018-10-21T00:34:02.609Z,100.00
2018-10-21T00:36:31.381Z,100.00
2018-10-21T00:39:00.266Z,100.00
2018-10-21T00:41:29.244Z,100.00
2018-10-21T00:43:58.031Z,100.00
2018-10-21T00:46:26.890Z,100.00
2018-10-21T00:48:55.768Z,100.00
2018-10-21T00:51:24.571Z,100.00
2018-10-21T00:53:53.592Z,100.00
2018-10-21T00:56:22.608Z,100.00
2018-10-21T00:58:51.472Z,100.00
2018-10-21T01:01:20.305Z,100.00
2018-10-21T01:03:49.182Z,100.00
2018-10-21T01:06:18.120Z,100.00
2018-10-21T01:08:46.912Z,100.00
2018-10-21T01:11:15.920Z,100.00
2018-10-21T01:13:44.699Z,100.00
2018-10-21T01:16:13.789Z,100.00
2018-10-21T01:18:42.684Z,100.00
2018-10-21T01:21:11.567Z,100.00
2018-10-21T01:23:40.536Z,100.00
2018-10-21T01:26:09.404Z,100.00
2018-10-21T01:28:38.451Z,100.00
2018-10-21T01:31:07.297Z,100.00
2018-10-21T01:33:36.163Z,100.00
2018-10-21T01:36:05.331Z,100.00
2018-10-21T01:38:34.116Z,100.00
2018-10-21T01:41:02.963Z,100.00
2018-10-21T01:43:32.714Z,100.00
2018-10-21T01:46:02.418Z,100.00
2018-10-21T01:48:32.439Z,100.00
2018-10-21T01:51:01.432Z,100.00
2018-10-21T01:53:30.256Z,100.00
2018-10-21T01:55:59.649Z,100.00
2018-10-21T01:58:28.456Z,100.00
2018-10-21T02:00:57.581Z,100.00
2018-10-21T02:03:26.504Z,100.00
2018-10-21T02:05:55.280Z,100.00
2018-10-21T02:08:24.069Z,100.00
2018-10-21T02:10:53.163Z,100.00
2018-10-21T02:13:22.020Z,100.00
2018-10-21T02:15:50.825Z,100.00
2018-10-21T02:18:20.123Z,100.00
2018-10-21T02:20:48.952Z,100.00
2018-10-21T02:23:17.775Z,100.00
2018-10-21T02:25:46.751Z,100.00
2018-10-21T02:28:15.533Z,100.00
2018-10-21T02:30:44.301Z,100.00
2018-10-21T02:33:13.261Z,100.00
2018-10-21T02:35:42.022Z,100.00
2018-10-21T02:38:11.180Z,100.00
2018-10-21T02:41:54.128Z,100.00
2018-10-21T02:44:23.338Z,100.00
2018-10-21T02:46:53.563Z,100.00
2018-10-21T02:49:22.759Z,100.00
2018-10-21T02:51:57.148Z,100.00
2018-10-21T02:54:27.397Z,100.00
2018-10-21T02:56:56.487Z,100.00
2018-10-21T02:59:25.599Z,100.00
2018-10-21T03:01:55.919Z,100.00
2018-10-21T03:04:24.865Z,100.00
2018-10-21T03:06:53.639Z,100.00
2018-10-21T03:09:22.934Z,100.00
2018-10-21T03:11:51.746Z,100.00
2018-10-21T03:14:20.544Z,100.00
2018-10-21T03:16:49.440Z,100.00
2018-10-21T03:19:18.260Z,100.00
2018-10-21T03:21:47.178Z,100.00
2018-10-21T03:24:16.072Z,100.00
2018-10-21T03:26:46.099Z,100.00
2018-10-21T03:29:14.881Z,100.00
2018-10-21T03:31:43.713Z,100.00
2018-10-21T03:34:12.508Z,100.00
2018-10-21T03:36:41.371Z,100.00
2018-10-21T03:39:10.728Z,100.00
2018-10-21T03:41:39.543Z,100.00
2018-10-21T03:44:08.301Z,100.00
2018-10-21T03:46:37.830Z,100.00
2018-10-21T03:49:06.689Z,100.00
2018-10-21T03:51:35.495Z,100.00
2018-10-21T03:54:04.859Z,100.00
2018-10-21T03:56:33.642Z,100.00
2018-10-21T03:59:02.576Z,100.00
2018-10-21T04:01:31.450Z,100.00
2018-10-21T04:04:00.318Z,100.00
2018-10-21T04:06:29.473Z,100.00
2018-10-21T04:08:58.345Z,100.00
2018-10-21T04:11:27.411Z,100.00
2018-10-21T04:13:56.253Z,100.00
2018-10-21T04:16:25.473Z,100.00
2018-10-21T04:18:54.497Z,100.00
2018-10-21T04:21:23.321Z,100.00
2018-10-21T04:23:52.517Z,100.00
2018-10-21T04:26:21.458Z,100.00
2018-10-21T04:28:50.257Z,100.00
2018-10-21T04:31:19.124Z,100.00
2018-10-21T04:33:48.026Z,100.00
2018-10-21T04:36:33.543Z,100.00
2018-10-21T04:39:25.152Z,100.00
2018-10-21T04:41:54.017Z,100.00
2018-10-21T04:44:22.829Z,100.00
2018-10-21T04:46:51.762Z,100.00
2018-10-21T04:49:20.605Z,100.00
2018-10-21T04:51:49.377Z,100.00
2018-10-21T04:54:18.159Z,100.00
2018-10-21T04:56:46.984Z,100.00
2018-10-21T04:59:15.896Z,100.00
2018-10-21T05:01:44.777Z,100.00
2018-10-21T05:04:13.635Z,100.00
2018-10-21T05:06:42.396Z,100.00
2018-10-21T05:09:11.182Z,100.00
2018-10-21T05:11:40.333Z,100.00
2018-10-21T05:14:09.272Z,100.00
2018-10-21T05:16:38.100Z,100.00
2018-10-21T05:19:07.204Z,100.00
2018-10-21T05:21:36.008Z,100.00
2018-10-21T05:24:05.281Z,100.00
2018-10-21T05:26:34.186Z,100.00
2018-10-21T05:29:02.984Z,100.00
2018-10-21T05:31:31.837Z,100.00
2018-10-21T05:34:00.723Z,100.00
2018-10-21T05:36:29.496Z,100.00
2018-10-21T05:38:58.395Z,100.00
2018-10-21T05:41:27.233Z,100.00
2018-10-21T05:43:56.025Z,100.00
2018-10-21T05:46:40.449Z,100.00
2018-10-21T05:49:09.390Z,100.00
2018-10-21T05:51:39.172Z,100.00
2018-10-21T05:54:09.611Z,100.00
2018-10-21T05:56:39.544Z,100.00
2018-10-21T05:59:08.376Z,100.00
2018-10-21T06:01:38.119Z,100.00
2018-10-21T06:04:07.705Z,100.00
2018-10-21T06:06:36.531Z,100.00
2018-10-21T06:09:07.560Z,100.00
2018-10-21T06:11:36.504Z,100.00
2018-10-21T06:14:05.866Z,100.00
2018-10-21T06:16:40.743Z,100.00
2018-10-21T06:19:12.461Z,100.00
2018-10-21T06:21:42.541Z,100.00
2018-10-21T06:24:11.354Z,100.00
2018-10-21T06:26:40.204Z,100.00
2018-10-21T06:29:09.088Z,100.00
2018-10-21T06:31:37.917Z,100.00
2018-10-21T06:34:06.931Z,100.00
2018-10-21T06:36:35.958Z,100.00
2018-10-21T06:39:05.699Z,100.00
2018-10-21T06:41:34.506Z,100.00
2018-10-21T06:44:03.538Z,100.00
2018-10-21T06:46:32.415Z,100.00
2018-10-21T06:49:01.557Z,100.00
2018-10-21T06:51:30.636Z,100.00
2018-10-21T06:53:59.446Z,100.00
2018-10-21T06:56:28.420Z,100.00
2018-10-21T06:58:58.203Z,100.00
2018-10-21T07:01:27.866Z,100.00
2018-10-21T07:03:56.839Z,100.00
2018-10-21T07:06:26.800Z,100.00
2018-10-21T07:08:56.882Z,100.00
2018-10-21T07:11:25.774Z,100.00
2018-10-21T07:13:54.586Z,100.00
2018-10-21T07:16:23.563Z,100.00
2018-10-21T07:18:52.875Z,100.00
2018-10-21T07:21:21.703Z,100.00
2018-10-21T07:23:50.980Z,100.00
2018-10-21T07:26:19.896Z,100.00
2018-10-21T07:28:48.699Z,98.99
2018-10-21T07:31:17.611Z,98.26
2018-10-21T07:33:46.359Z,98.74
2018-10-21T07:36:15.229Z,98.58
2018-10-21T07:38:44.084Z,98.62
2018-10-21T07:41:12.917Z,97.61
2018-10-21T07:43:41.763Z,96.66
2018-10-21T07:46:10.907Z,96.92
2018-10-21T07:48:39.806Z,97.29
2018-10-21T07:51:08.836Z,96.88
2018-10-21T07:53:37.697Z,94.81
2018-10-21T07:56:06.874Z,93.82
2018-10-21T07:58:35.752Z,95.28
2018-10-21T08:01:05.020Z,95.69
2018-10-21T08:03:33.823Z,93.07
2018-10-21T08:06:31.901Z,93.44
2018-10-21T08:09:00.761Z,92.58
2018-10-21T08:11:29.656Z,91.60
2018-10-21T08:13:58.514Z,92.81
2018-10-21T08:16:27.334Z,92.81
2018-10-21T08:18:56.197Z,90.38
2018-10-21T08:21:25.077Z,89.85
2018-10-21T08:23:53.995Z,89.70
2018-10-21T08:26:23.183Z,88.75
2018-10-21T08:28:52.071Z,89.33
2018-10-21T08:31:20.831Z,89.08
2018-10-21T08:33:49.891Z,88.07
2018-10-21T08:36:18.769Z,88.24
2018-10-21T08:38:47.568Z,88.39
2018-10-21T08:41:16.397Z,87.60
2018-10-21T08:43:45.251Z,88.19
2018-10-21T08:46:14.138Z,88.16
2018-10-21T08:48:42.981Z,88.13
2018-10-21T08:51:11.867Z,87.30
2018-10-21T08:53:40.749Z,87.31
2018-10-21T08:56:09.640Z,87.13
2018-10-21T08:58:38.631Z,85.96
2018-10-21T09:01:07.760Z,86.54
2018-10-21T09:03:36.862Z,84.92
2018-10-21T09:06:05.758Z,85.09
2018-10-21T09:08:34.533Z,84.41
2018-10-21T09:11:03.481Z,83.81
2018-10-21T09:13:32.361Z,83.96
2018-10-21T09:16:01.272Z,83.51
2018-10-21T09:18:30.065Z,83.80
2018-10-21T09:20:58.952Z,83.73
2018-10-21T09:23:27.773Z,83.25
2018-10-21T09:25:56.715Z,82.06
2018-10-21T09:28:25.532Z,82.41
2018-10-21T09:30:54.401Z,83.06
2018-10-21T09:33:23.242Z,82.42
2018-10-21T09:35:52.110Z,82.31
2018-10-21T09:38:20.973Z,81.65
2018-10-21T09:40:49.792Z,80.92
2018-10-21T09:43:18.691Z,81.42
2018-10-21T09:45:47.575Z,81.68
2018-10-21T09:48:16.433Z,81.47
2018-10-21T09:50:45.333Z,80.74
2018-10-21T09:53:14.168Z,81.03
2018-10-21T09:55:43.140Z,80.12
2018-10-21T09:58:12.104Z,79.83
2018-10-21T10:00:46.390Z,79.08
2018-10-21T10:03:15.359Z,79.33
2018-10-21T10:05:44.242Z,78.54
2018-10-21T10:08:13.092Z,78.60
2018-10-21T10:10:42.143Z,78.37
2018-10-21T10:13:11.081Z,81.46
2018-10-21T10:15:39.950Z,81.35
2018-10-21T10:18:08.780Z,79.60
2018-10-21T10:20:37.607Z,78.77
2018-10-21T10:23:06.552Z,80.51
2018-10-21T10:25:35.347Z,80.37
2018-10-21T10:28:04.338Z,79.11
2018-10-21T10:30:33.165Z,79.08
2018-10-21T10:33:01.928Z,79.01
2018-10-21T10:35:30.748Z,78.66
2018-10-21T10:37:59.637Z,78.03
2018-10-21T10:40:28.651Z,78.63
2018-10-21T10:42:57.459Z,78.08
2018-10-21T10:45:26.269Z,77.85
2018-10-21T10:47:55.059Z,77.90
2018-10-21T10:50:29.955Z,76.94
2018-10-21T10:52:58.908Z,76.77
2018-10-21T10:55:33.355Z,77.19
2018-10-21T10:58:02.345Z,76.52
2018-10-21T11:00:31.176Z,76.63
2018-10-21T11:03:00.971Z,76.48
2018-10-21T11:05:30.486Z,75.92
2018-10-21T11:07:59.810Z,76.19
2018-10-21T11:10:28.693Z,75.41
2018-10-21T11:12:57.600Z,75.95
2018-10-21T11:15:26.476Z,75.39
2018-10-21T11:17:55.297Z,75.38
2018-10-21T11:20:24.512Z,75.19
2018-10-21T11:22:53.376Z,74.44
2018-10-21T11:25:22.153Z,74.52
2018-10-21T11:27:51.533Z,73.29
2018-10-21T11:30:20.398Z,73.96
2018-10-21T11:32:49.264Z,73.86
2018-10-21T11:35:18.211Z,74.43
2018-10-21T11:37:47.083Z,72.62
2018-10-21T11:40:15.917Z,73.42
2018-10-21T11:42:44.818Z,72.14
2018-10-21T11:45:13.778Z,72.90
2018-10-21T11:47:42.585Z,71.87
2018-10-21T11:50:11.894Z,71.65
2018-10-21T11:52:40.812Z,72.27
2018-10-21T11:55:10.444Z,70.54
2018-10-21T11:57:39.284Z,70.62
2018-10-21T12:00:09.624Z,70.34
2018-10-21T12:02:38.533Z,71.01
2018-10-21T12:05:07.975Z,69.94
2018-10-21T12:07:36.804Z,70.54
2018-10-21T12:10:06.460Z,70.68
2018-10-21T12:12:35.599Z,70.74
2018-10-21T12:15:04.808Z,70.56
2018-10-21T12:17:33.670Z,69.97
2018-10-21T12:20:02.607Z,71.72
2018-10-21T12:22:31.382Z,72.23
2018-10-21T12:25:00.337Z,72.07
2018-10-21T12:27:29.231Z,72.09
2018-10-21T12:29:58.081Z,70.96
2018-10-21T12:32:26.909Z,70.00
2018-10-21T12:34:56.265Z,70.15
2018-10-21T12:37:25.341Z,70.17
2018-10-21T12:39:54.161Z,69.13
2018-10-21T12:42:23.132Z,69.10
2018-10-21T12:44:51.949Z,68.40
2018-10-21T12:47:20.848Z,68.59
2018-10-21T12:49:49.718Z,67.81
2018-10-21T12:52:18.803Z,69.05
2018-10-21T12:54:47.676Z,68.98
2018-10-21T12:57:16.995Z,68.71
2018-10-21T12:59:45.778Z,68.39
2018-10-21T13:02:14.629Z,67.32
2018-10-21T13:04:43.493Z,67.90
2018-10-21T13:07:12.462Z,67.58
2018-10-21T13:09:41.339Z,66.47
2018-10-21T13:12:10.264Z,67.14
2018-10-21T13:14:39.076Z,67.02
2018-10-21T13:17:14.347Z,67.38
2018-10-21T13:19:43.281Z,66.08
2018-10-21T13:22:12.234Z,67.26
2018-10-21T13:24:41.441Z,67.26
2018-10-21T13:27:10.665Z,67.15
2018-10-21T13:29:39.489Z,66.35
2018-10-21T13:32:08.476Z,66.71
2018-10-21T13:34:37.386Z,66.70
2018-10-21T13:37:06.242Z,66.57
2018-10-21T13:39:35.124Z,66.39
2018-10-21T13:42:04.460Z,67.44
2018-10-21T13:44:33.376Z,67.19
2018-10-21T13:47:02.493Z,67.75
2018-10-21T13:49:32.523Z,67.76
2018-10-21T13:52:03.818Z,68.81
2018-10-21T13:54:33.588Z,68.15
2018-10-21T13:57:02.733Z,67.82
2018-10-21T13:59:31.665Z,67.82
2018-10-21T14:02:00.623Z,68.15
2018-10-21T14:04:29.428Z,68.32
2018-10-21T14:06:58.360Z,68.55
2018-10-21T14:09:27.178Z,68.50
2018-10-21T14:11:55.976Z,69.39
2018-10-21T14:14:24.913Z,68.99
2018-10-21T14:16:53.701Z,68.95
2018-10-21T14:19:22.499Z,68.60
2018-10-21T14:21:51.492Z,68.89
2018-10-21T14:24:20.321Z,69.23
2018-10-21T14:26:49.100Z,69.33
2018-10-21T14:29:18.226Z,69.82
2018-10-21T14:31:47.037Z,69.40
2018-10-21T14:34:16.096Z,70.09
2018-10-21T14:36:45.259Z,68.94
2018-10-21T14:39:14.172Z,68.31
2018-10-21T14:41:43.046Z,69.10
2018-10-21T14:44:12.266Z,68.79
2018-10-21T14:46:41.173Z,69.33
2018-10-21T14:49:11.232Z,69.67
2018-10-21T14:51:40.156Z,69.65
2018-10-21T14:54:09.040Z,69.98
2018-10-21T14:56:37.936Z,69.52
2018-10-21T14:59:06.905Z,70.55
2018-10-21T15:01:35.822Z,70.71
2018-10-21T15:04:05.013Z,69.63
2018-10-21T15:06:33.873Z,70.50
2018-10-21T15:09:04.111Z,69.82
2018-10-21T15:11:33.434Z,70.62
2018-10-21T15:14:02.475Z,70.57
2018-10-21T15:16:31.505Z,70.88
2018-10-21T15:19:00.315Z,71.00
2018-10-21T15:21:29.601Z,71.44
2018-10-21T15:23:58.494Z,71.05
2018-10-21T15:26:27.346Z,71.68
2018-10-21T15:28:56.214Z,70.99
2018-10-21T15:31:25.047Z,71.98
2018-10-21T15:33:53.943Z,72.30
2018-10-21T15:36:22.865Z,72.27
2018-10-21T15:38:51.675Z,72.38
2018-10-21T15:41:20.495Z,72.75
2018-10-21T15:43:49.820Z,73.07
2018-10-21T15:46:18.740Z,72.85
2018-10-21T15:48:47.821Z,72.73
2018-10-21T15:51:16.635Z,72.63
2018-10-21T15:53:45.506Z,73.08
2018-10-21T15:56:14.416Z,73.67
2018-10-21T15:58:43.432Z,72.94
2018-10-21T16:01:12.379Z,73.24
2018-10-21T16:03:41.207Z,73.18
2018-10-21T16:06:10.398Z,73.88
2018-10-21T16:08:39.230Z,73.11
2018-10-21T16:11:08.244Z,72.88
2018-10-21T16:13:37.286Z,73.46
2018-10-21T16:16:06.486Z,73.33
2018-10-21T16:18:35.368Z,73.85
2018-10-21T16:21:04.298Z,74.39
2018-10-21T16:23:33.107Z,74.29
2018-10-21T16:26:02.105Z,73.05
2018-10-21T16:28:31.252Z,73.33
2018-10-21T16:31:00.629Z,74.18
2018-10-21T16:33:29.489Z,73.97
2018-10-21T16:35:58.381Z,74.44
2018-10-21T16:38:27.557Z,73.84
2018-10-21T16:40:56.861Z,73.09
2018-10-21T16:43:25.802Z,73.40
2018-10-21T16:45:54.567Z,72.58
2018-10-21T16:48:23.372Z,72.08
2018-10-21T16:50:52.348Z,72.07
2018-10-21T16:53:21.214Z,71.54
2018-10-21T16:55:50.001Z,71.70
2018-10-21T16:58:18.845Z,72.78
2018-10-21T17:00:47.981Z,70.33
2018-10-21T17:03:16.891Z,70.98
2018-10-21T17:05:45.966Z,71.08
2018-10-21T17:08:14.854Z,70.45
2018-10-21T17:10:44.059Z,69.82
2018-10-21T17:13:12.787Z,70.02
2018-10-21T17:15:41.713Z,70.52
2018-10-21T17:18:10.535Z,70.64
2018-10-21T17:20:39.408Z,70.05
2018-10-21T17:23:08.607Z,70.50
2018-10-21T17:25:37.381Z,71.49
2018-10-21T17:28:06.649Z,71.37
2018-10-21T17:30:35.807Z,72.05
2018-10-21T17:33:04.669Z,72.68
2018-10-21T17:35:33.900Z,72.88
2018-10-21T17:38:02.747Z,73.25
2018-10-21T17:40:31.678Z,72.93
2018-10-21T17:43:00.569Z,73.59
2018-10-21T17:45:29.440Z,73.99
2018-10-21T17:47:58.280Z,74.76
2018-10-21T17:50:27.164Z,74.99
2018-10-21T17:52:56.115Z,75.82
2018-10-21T17:55:24.952Z,76.13
2018-10-21T17:57:53.801Z,76.74
2018-10-21T18:00:22.686Z,77.25
2018-10-21T18:02:51.660Z,77.34
2018-10-21T18:05:20.758Z,78.02
2018-10-21T18:07:49.624Z,78.40
2018-10-21T18:10:18.521Z,78.67
2018-10-21T18:12:47.402Z,78.91
2018-10-21T18:15:16.190Z,80.44
2018-10-21T18:17:45.111Z,81.56
2018-10-21T18:20:14.048Z,81.63
2018-10-21T18:22:42.888Z,81.14
2018-10-21T18:25:11.753Z,81.52
2018-10-21T18:27:41.023Z,82.01
2018-10-21T18:30:11.178Z,81.49
2018-10-21T18:32:40.075Z,81.35
2018-10-21T18:35:11.361Z,81.77
2018-10-21T18:37:40.186Z,82.51
2018-10-21T18:40:09.916Z,82.67
2018-10-21T18:42:39.551Z,83.38
2018-10-21T18:45:11.739Z,83.50
2018-10-21T18:47:40.891Z,83.25
2018-10-21T18:50:12.556Z,82.93
2018-10-21T18:52:41.578Z,82.34
2018-10-21T18:55:11.441Z,82.12
2018-10-21T18:57:40.393Z,82.70
2018-10-21T19:00:13.719Z,82.36
2018-10-21T19:02:42.731Z,82.28
2018-10-21T19:05:12.380Z,81.98
2018-10-21T19:07:41.298Z,82.30
2018-10-21T19:10:12.128Z,82.35
2018-10-21T19:12:41.142Z,82.12
2018-10-21T19:15:11.364Z,81.83
2018-10-21T19:17:40.592Z,81.63
2018-10-21T19:20:12.413Z,81.20
2018-10-21T19:22:41.406Z,81.47
2018-10-21T19:25:11.755Z,81.42
2018-10-21T19:27:40.793Z,81.14
2018-10-21T19:30:11.287Z,80.73
2018-10-21T19:32:40.907Z,81.65
2018-10-21T19:35:11.134Z,82.30
2018-10-21T19:37:40.221Z,81.98
2018-10-21T19:40:11.027Z,81.95
2018-10-21T19:42:40.149Z,81.94
2018-10-21T19:45:10.567Z,82.03
2018-10-21T19:47:39.887Z,82.24
2018-10-21T19:50:10.776Z,82.06
2018-10-21T19:52:40.571Z,82.41
2018-10-21T19:55:09.675Z,82.49
2018-10-21T19:57:38.567Z,82.76
2018-10-21T20:00:11.881Z,82.74
2018-10-21T20:02:40.925Z,82.85
2018-10-21T20:05:10.089Z,82.90
2018-10-21T20:07:39.068Z,83.02
2018-10-21T20:10:10.849Z,82.80
2018-10-21T20:12:39.678Z,82.97
2018-10-21T20:15:09.753Z,82.87
2018-10-21T20:17:38.947Z,82.62
2018-10-21T20:20:08.932Z,82.87
2018-10-21T20:22:37.783Z,82.62
2018-10-21T20:25:08.217Z,82.51
2018-10-21T20:27:37.122Z,82.18
2018-10-21T20:30:08.095Z,82.49
2018-10-21T20:32:37.223Z,82.51
2018-10-21T20:35:07.716Z,82.54
2018-10-21T20:37:36.982Z,81.86
2018-10-21T20:40:07.244Z,82.25
2018-10-21T20:42:36.106Z,82.35
2018-10-21T20:45:07.096Z,82.43
2018-10-21T20:47:35.954Z,82.45
2018-10-21T20:50:05.101Z,82.09
2018-10-21T20:52:34.045Z,81.75
2018-10-21T20:55:02.960Z,80.94
2018-10-21T20:57:31.819Z,80.73
2018-10-21T21:00:00.690Z,80.07
2018-10-21T21:02:29.545Z,80.08
2018-10-21T21:04:58.670Z,80.34
2018-10-21T21:07:27.615Z,79.92
2018-10-21T21:09:56.705Z,79.94
2018-10-21T21:12:25.510Z,80.12
2018-10-21T21:14:54.377Z,81.61
2018-10-21T21:17:23.661Z,81.04
2018-10-21T21:19:52.518Z,80.83
2018-10-21T21:22:21.380Z,81.23
2018-10-21T21:24:50.220Z,81.68
2018-10-21T21:27:19.363Z,81.92
2018-10-21T21:29:48.251Z,81.69
2018-10-21T21:32:17.097Z,81.57
2018-10-21T21:34:45.968Z,80.92
2018-10-21T21:37:14.818Z,79.76
2018-10-21T21:39:43.676Z,79.63
2018-10-21T21:42:12.676Z,79.87
2018-10-21T21:44:41.477Z,80.00
2018-10-21T21:47:10.330Z,79.41
2018-10-21T21:49:39.552Z,78.50
2018-10-21T21:52:08.487Z,77.99
2018-10-21T21:54:37.393Z,77.95
2018-10-21T21:57:06.581Z,78.26
2018-10-21T21:59:35.449Z,77.63
2018-10-21T22:02:04.629Z,77.67
2018-10-21T22:04:33.563Z,77.10
2018-10-21T22:07:02.434Z,77.06
2018-10-21T22:09:31.274Z,77.17
2018-10-21T22:12:00.369Z,76.14
2018-10-21T22:14:29.214Z,76.31
2018-10-21T22:16:58.070Z,76.19
2018-10-21T22:19:27.025Z,76.57
2018-10-21T22:21:55.879Z,76.81
2018-10-21T22:24:24.742Z,77.32
2018-10-21T22:26:53.628Z,76.22
2018-10-21T22:29:22.474Z,76.24
2018-10-21T22:31:51.409Z,75.95
2018-10-21T22:34:20.273Z,76.86
2018-10-21T22:36:49.103Z,76.82
2018-10-21T22:39:17.964Z,77.22
2018-10-21T22:41:47.214Z,77.37
2018-10-21T22:44:16.085Z,76.99
2018-10-21T22:46:44.957Z,77.03
2018-10-21T22:49:14.277Z,77.06
2018-10-21T22:51:43.105Z,76.75
2018-10-21T22:54:12.289Z,77.30
2018-10-21T22:56:41.309Z,76.86
2018-10-21T22:59:10.182Z,77.53
2018-10-21T23:01:38.984Z,77.47
2018-10-21T23:04:07.916Z,77.50
2018-10-21T23:06:36.738Z,77.36
2018-10-21T23:09:09.080Z,77.83
2018-10-21T23:11:37.934Z,76.73
2018-10-21T23:14:06.913Z,76.41
2018-10-21T23:16:36.150Z,76.43
2018-10-21T23:19:21.926Z,76.41
2018-10-21T23:21:51.004Z,76.60
2018-10-21T23:24:19.985Z,76.15
2018-10-21T23:26:48.730Z,75.34
2018-10-21T23:29:17.588Z,74.89
2018-10-21T23:31:46.380Z,75.30
2018-10-21T23:34:15.277Z,74.12
2018-10-21T23:36:44.129Z,74.65
2018-10-21T23:39:12.975Z,75.18
2018-10-21T23:41:41.798Z,75.52
2018-10-21T23:44:10.733Z,75.11
2018-10-21T23:46:39.674Z,75.32
2018-10-21T23:49:08.513Z,75.17
2018-10-21T23:51:37.447Z,74.84
2018-10-21T23:54:06.395Z,75.46
2018-10-21T23:56:35.245Z,75.90
2018-10-21T23:59:04.906Z,76.12
